Time;durP1;ratioP1;P1;durP2;ratioP2;P2;SDS_P1;SDS_P2;PMS_P1;PMS_P2;Temp;Humidity;BMP_temperature;BMP_pressure;BME280_temperature;BME280_humidity;BME280_pressure;Samples;Min_cycle;Max_cycle;Signal;HPM_P1;HPM_P2
2023/07/22 00:01:30;;;;;;;;;;;;;;;9.90;50.31;95424.47;4999138;28;19980;-77
2023/07/22 00:03:55;;;;;;;;;;;;;;;9.80;48.25;95426.53;4999178;28;20047;-77
2023/07/22 00:06:20;;;;;;;;;;;;;;;9.77;51.21;95430.38;4992755;28;19929;-77
2023/07/22 00:08:45;;;;;;;;;;;;;;;9.71;48.58;95425.75;4997493;28;19923;-76
2023/07/22 00:11:11;;;;;;;;;;;;;;;9.60;50.02;95427.00;4998603;28;20056;-77
2023/07/22 00:13:36;;;;;;;;;;;;;;;9.54;50.48;95433.84;5002226;28;19918;-77
2023/07/22 00:16:04;;;;;;;;;;;;;;;9.54;51.50;95436.50;5002911;28;19913;-77
2023/07/22 00:18:29;;;;;;;;;;;;;;;9.46;51.24;95434.72;5000009;28;20456;-77
2023/07/22 00:20:54;;;;;;;;;;;;;;;9.42;48.88;95433.41;5014791;28;19921;-77
2023/07/22 00:23:22;;;;;;;;;;;;;;;9.39;50.24;95430.28;5002597;28;20132;-77
2023/07/22 00:25:48;;;;;;;;;;;;;;;9.37;51.79;95430.47;5001051;28;19952;-76
2023/07/22 00:28:13;;;;;;;;;;;;;;;9.35;50.36;95431.66;5016619;28;20379;-77
2023/07/22 00:30:38;;;;;;;;;;;;;;;9.31;51.65;95426.66;5001851;28;19932;-77
2023/07/22 00:33:03;;;;;;;;;;;;;;;9.29;51.75;95431.31;5001313;28;20518;-76
2023/07/22 00:35:29;;;;;;;;;;;;;;;9.25;50.45;95426.53;5002398;28;20384;-77
2023/07/22 00:37:54;;;;;;;;;;;;;;;9.23;51.79;95426.72;5016340;28;20422;-77
2023/07/22 00:40:19;;;;;;;;;;;;;;;9.23;53.56;95418.75;5001495;28;20286;-76
2023/07/22 00:42:44;;;;;;;;;;;;;;;9.19;51.58;95425.41;5002378;28;19918;-77
2023/07/22 00:45:10;;;;;;;;;;;;;;;9.15;52.08;95430.22;5002329;28;20295;-77
2023/07/22 00:47:35;;;;;;;;;;;;;;;9.10;51.79;95435.25;5002797;28;19918;-76
2023/07/22 00:50:03;;;;;;;;;;;;;;;9.05;52.65;95435.75;5001064;28;19983;-77
2023/07/22 00:52:29;;;;;;;;;;;;;;;9.06;53.76;95433.94;5016952;28;19913;-77
2023/07/22 00:54:55;;;;;;;;;;;;;;;9.07;53.91;95430.28;5001895;28;19933;-77
2023/07/22 00:57:20;;;;;;;;;;;;;;;9.06;54.40;95434.78;5017118;28;20029;-77
2023/07/22 00:59:45;;;;;;;;;;;;;;;9.06;54.21;95433.94;5002634;28;19920;-76
2023/07/22 01:02:11;;;;;;;;;;;;;;;8.90;52.40;95432.13;5002256;28;19918;-76
2023/07/22 01:04:36;;;;;;;;;;;;;;;8.89;53.64;95435.78;5010383;23;20016;-73
2023/07/22 01:07:06;;;;;;;;;;;;;;;8.80;49.85;95419.91;5024607;28;19917;-73
2023/07/22 01:09:35;;;;;;;;;;;;;;;8.82;54.20;95428.53;5022303;28;20325;-74
2023/07/22 01:12:00;;;;;;;;;;;;;;;8.76;51.15;95410.63;5024630;28;19971;-73
2023/07/22 01:14:26;;;;;;;;;;;;;;;8.75;53.77;95424.91;5031079;28;19925;-74
2023/07/22 01:16:51;;;;;;;;;;;;;;;8.75;54.42;95411.63;5024121;28;19924;-73
2023/07/22 01:19:16;;;;;;;;;;;;;;;8.78;54.05;95416.56;5019823;28;19929;-73
2023/07/22 01:21:41;;;;;;;;;;;;;;;8.77;52.30;95414.94;5021128;28;19929;-73
2023/07/22 01:24:07;;;;;;;;;;;;;;;8.73;52.79;95407.47;5022561;28;19921;-73
2023/07/22 01:26:32;;;;;;;;;;;;;;;8.75;53.53;95411.63;5029051;28;20385;-73
2023/07/22 01:29:04;;;;;;;;;;;;;;;8.77;53.65;95412.28;5023371;28;19957;-73
2023/07/22 01:31:29;;;;;;;;;;;;;;;8.73;52.54;95413.63;5027578;28;19921;-73
2023/07/22 01:33:54;;;;;;;;;;;;;;;8.67;52.05;95409.81;5011169;28;20549;-73
2023/07/22 01:36:20;;;;;;;;;;;;;;;8.64;52.06;95418.13;5004557;28;20002;-73
2023/07/22 01:38:45;;;;;;;;;;;;;;;8.61;51.28;95415.00;5030736;28;20008;-73
2023/07/22 01:41:10;;;;;;;;;;;;;;;8.58;52.12;95416.16;5023125;28;19976;-74
2023/07/22 01:43:36;;;;;;;;;;;;;;;8.57;52.94;95409.22;5005598;28;20305;-74
2023/07/22 01:46:01;;;;;;;;;;;;;;;8.53;52.04;95419.31;5006166;28;19925;-72
2023/07/22 01:48:27;;;;;;;;;;;;;;;8.48;52.35;95413.69;5003667;28;19917;-74
2023/07/22 01:50:52;;;;;;;;;;;;;;;8.40;51.70;95413.72;5002433;28;19921;-74
2023/07/22 01:53:17;;;;;;;;;;;;;;;8.32;48.39;95411.09;5004054;28;19952;-73
2023/07/22 01:55:44;;;;;;;;;;;;;;;8.28;51.20;95415.88;5001538;28;20016;-74
2023/07/22 01:58:09;;;;;;;;;;;;;;;8.28;52.84;95411.44;5002371;28;19933;-74
2023/07/22 02:00:34;;;;;;;;;;;;;;;8.28;51.88;95408.78;5001882;28;19976;-74
2023/07/22 02:03:00;;;;;;;;;;;;;;;8.26;50.87;95405.44;5001655;28;19929;-74
2023/07/22 02:05:27;;;;;;;;;;;;;;;8.22;51.48;95416.56;4995991;28;19929;-73
2023/07/22 02:07:52;;;;;;;;;;;;;;;8.17;52.14;95409.13;5002696;28;20020;-73
2023/07/22 02:10:17;;;;;;;;;;;;;;;8.19;53.86;95417.72;5014897;28;20008;-73
2023/07/22 02:12:42;;;;;;;;;;;;;;;8.12;51.41;95411.44;5021913;28;19975;-74
2023/07/22 02:15:08;;;;;;;;;;;;;;;8.08;51.38;95416.25;5020390;28;20671;-73
2023/07/22 02:17:33;;;;;;;;;;;;;;;8.05;52.13;95413.94;5013883;28;20040;-74
2023/07/22 02:19:59;;;;;;;;;;;;;;;8.08;54.11;95421.56;4998977;28;20568;-74
2023/07/22 02:22:24;;;;;;;;;;;;;;;8.04;52.31;95409.63;5001322;28;19926;-74
2023/07/22 02:24:49;;;;;;;;;;;;;;;8.03;52.07;95413.28;5001657;28;19936;-73
2023/07/22 02:27:14;;;;;;;;;;;;;;;8.04;53.90;95415.75;5022234;28;20212;-74
2023/07/22 02:29:40;;;;;;;;;;;;;;;8.02;53.76;95411.59;5021549;28;20274;-73
2023/07/22 02:32:05;;;;;;;;;;;;;;;7.95;50.46;95411.44;5022158;28;19924;-73
2023/07/22 02:34:30;;;;;;;;;;;;;;;7.88;51.46;95413.94;5021063;28;19918;-73
2023/07/22 02:36:56;;;;;;;;;;;;;;;7.88;51.52;95407.81;5014998;28;19944;-74
2023/07/22 02:39:21;;;;;;;;;;;;;;;7.85;50.94;95410.81;5021972;28;19921;-74
2023/07/22 02:41:47;;;;;;;;;;;;;;;7.77;51.12;95406.31;5021314;28;20293;-73
2023/07/22 02:44:12;;;;;;;;;;;;;;;7.76;52.02;95412.59;5021598;28;20034;-72
2023/07/22 02:46:37;;;;;;;;;;;;;;;7.66;51.06;95410.91;5021254;28;19921;-74
2023/07/22 02:49:03;;;;;;;;;;;;;;;7.59;50.81;95420.53;5020053;28;19921;-74
2023/07/22 02:51:28;;;;;;;;;;;;;;;7.59;51.74;95412.59;5021581;28;20006;-73
2023/07/22 02:53:53;;;;;;;;;;;;;;;7.59;51.37;95419.69;5026289;28;19932;-72
2023/07/22 02:56:18;;;;;;;;;;;;;;;7.59;50.54;95406.44;5019484;28;20324;-73
2023/07/22 02:58:43;;;;;;;;;;;;;;;7.59;52.43;95409.94;5020746;28;20004;-73
2023/07/22 03:01:10;;;;;;;;;;;;;;;7.55;52.51;95416.53;5020297;28;19963;-73
2023/07/22 03:03:35;;;;;;;;;;;;;;;7.56;51.93;95418.22;5018718;28;20100;-72
2023/07/22 03:06:01;;;;;;;;;;;;;;;7.52;52.43;95420.34;5016499;28;19927;-73
2023/07/22 03:08:26;;;;;;;;;;;;;;;7.47;52.91;95417.34;5020138;28;19926;-73
2023/07/22 03:10:52;;;;;;;;;;;;;;;7.50;51.44;95418.84;5020187;28;20007;-73
2023/07/22 03:13:17;;;;;;;;;;;;;;;7.47;49.05;95414.72;5020355;28;20300;-75
2023/07/22 03:15:42;;;;;;;;;;;;;;;7.36;47.73;95418.50;5020827;28;20012;-74
2023/07/22 03:18:09;;;;;;;;;;;;;;;7.30;49.74;95418.31;5019491;28;19917;-74
2023/07/22 03:20:35;;;;;;;;;;;;;;;7.34;51.49;95424.97;5018887;28;19923;-73
2023/07/22 03:23:00;;;;;;;;;;;;;;;7.32;51.51;95425.13;5019758;28;19925;-73
2023/07/22 03:25:25;;;;;;;;;;;;;;;7.35;52.59;95413.38;5019964;28;19928;-74
2023/07/22 03:27:51;;;;;;;;;;;;;;;7.40;53.28;95417.19;5021376;28;19909;-72
2023/07/22 03:30:16;;;;;;;;;;;;;;;7.44;53.84;95415.03;5020827;28;19960;-73
2023/07/22 03:32:42;;;;;;;;;;;;;;;7.47;52.64;95412.06;5021054;28;19967;-72
2023/07/22 03:35:09;;;;;;;;;;;;;;;7.48;52.32;95418.19;5019428;28;19921;-73
2023/07/22 03:37:36;;;;;;;;;;;;;;;7.50;52.75;95414.38;5020594;28;19921;-73
2023/07/22 03:40:01;;;;;;;;;;;;;;;7.48;51.41;95421.66;5021055;28;20379;-73
2023/07/22 03:42:27;;;;;;;;;;;;;;;7.46;53.09;95421.00;5020597;28;20016;-72
2023/07/22 03:44:52;;;;;;;;;;;;;;;7.41;48.67;95418.00;5002979;28;20010;-72
2023/07/22 03:47:17;;;;;;;;;;;;;;;7.41;50.97;95418.00;5020543;28;19961;-72
2023/07/22 03:49:42;;;;;;;;;;;;;;;7.27;47.97;95419.47;5024685;28;19924;-73
2023/07/22 03:52:08;;;;;;;;;;;;;;;7.23;49.92;95424.25;5024728;28;20385;-73
2023/07/22 03:54:33;;;;;;;;;;;;;;;7.15;47.81;95422.41;5024563;28;20301;-73
2023/07/22 03:56:58;;;;;;;;;;;;;;;7.13;51.37;95427.06;5023751;28;19951;-72
2023/07/22 03:59:23;;;;;;;;;;;;;;;7.17;49.80;95427.53;5023880;28;19967;-73
2023/07/22 04:01:48;;;;;;;;;;;;;;;7.23;51.77;95428.72;5023386;28;19948;-73
2023/07/22 04:04:14;;;;;;;;;;;;;;;7.23;49.26;95429.56;5022477;28;19968;-73
2023/07/22 04:06:39;;;;;;;;;;;;;;;7.28;53.16;95429.91;5020707;28;19921;-73
2023/07/22 04:09:04;;;;;;;;;;;;;;;7.35;52.06;95435.38;5022681;28;19951;-72
2023/07/22 04:11:29;;;;;;;;;;;;;;;7.45;52.42;95442.34;5023286;28;20008;-73
2023/07/22 04:13:55;;;;;;;;;;;;;;;7.50;53.07;95438.22;5023509;28;19929;-72
2023/07/22 04:16:20;;;;;;;;;;;;;;;7.52;50.65;95433.59;5021643;28;19925;-72
2023/07/22 04:18:45;;;;;;;;;;;;;;;7.60;52.24;95429.28;5018568;28;19961;-73
2023/07/22 04:21:11;;;;;;;;;;;;;;;7.66;51.06;95426.81;5023424;28;19925;-73
2023/07/22 04:23:37;;;;;;;;;;;;;;;7.71;52.23;95418.38;5022964;28;19917;-73
2023/07/22 04:26:04;;;;;;;;;;;;;;;7.78;52.77;95424.69;5022915;28;19928;-73
2023/07/22 04:28:30;;;;;;;;;;;;;;;7.91;53.52;95423.38;5023195;28;19925;-74
2023/07/22 04:30:55;;;;;;;;;;;;;;;7.99;51.07;95420.72;5020361;28;20325;-74
2023/07/22 04:33:21;;;;;;;;;;;;;;;8.09;51.33;95419.75;5020618;28;20011;-74
2023/07/22 04:35:46;;;;;;;;;;;;;;;7.98;48.05;95412.94;5023433;28;19925;-74
2023/07/22 04:38:11;;;;;;;;;;;;;;;7.84;47.90;95419.72;5020523;28;19921;-74
2023/07/22 04:40:36;;;;;;;;;;;;;;;7.96;50.98;95426.34;5024151;28;19921;-74
2023/07/22 04:43:02;;;;;;;;;;;;;;;8.13;51.28;95431.66;5023663;28;20444;-74
2023/07/22 04:45:28;;;;;;;;;;;;;;;8.33;52.38;95433.97;5020519;28;19922;-73
2023/07/22 04:47:53;;;;;;;;;;;;;;;8.44;51.16;95438.91;5024215;28;20281;-73
2023/07/22 04:50:18;;;;;;;;;;;;;;;8.57;51.15;95433.91;5023883;28;19917;-73
2023/07/22 04:52:47;;;;;;;;;;;;;;;8.72;49.96;95429.72;5021973;28;19967;-73
2023/07/22 04:55:12;;;;;;;;;;;;;;;8.83;49.26;95434.66;5022011;28;20035;-73
2023/07/22 04:57:38;;;;;;;;;;;;;;;8.91;48.42;95429.31;5017368;28;19937;-73
2023/07/22 05:00:03;;;;;;;;;;;;;;;9.01;48.01;95429.13;5023228;28;20684;-73
2023/07/22 05:02:30;;;;;;;;;;;;;;;9.11;48.79;95428.13;5023147;28;19917;-74
2023/07/22 05:04:55;;;;;;;;;;;;;;;9.20;48.31;95433.22;5017526;28;20602;-73
2023/07/22 05:07:21;;;;;;;;;;;;;;;9.35;49.01;95431.66;5023223;28;19917;-73
2023/07/22 05:09:46;;;;;;;;;;;;;;;9.50;47.81;95429.06;5023037;28;19921;-74
2023/07/22 05:12:12;;;;;;;;;;;;;;;9.68;48.75;95426.09;5021956;28;19962;-73
2023/07/22 05:14:37;;;;;;;;;;;;;;;9.82;47.90;95427.16;5021245;28;19930;-73
2023/07/22 05:17:02;;;;;;;;;;;;;;;9.94;47.47;95428.44;5022909;28;19925;-74
2023/07/22 05:19:27;;;;;;;;;;;;;;;10.06;47.57;95428.00;5021994;28;19924;-73
2023/07/22 05:21:53;;;;;;;;;;;;;;;10.17;47.12;95429.44;5020842;28;19990;-73
2023/07/22 05:24:18;;;;;;;;;;;;;;;10.28;47.31;95425.50;5023119;28;19990;-74
2023/07/22 05:26:43;;;;;;;;;;;;;;;10.41;47.10;95425.72;5022411;28;19925;-73
2023/07/22 05:29:09;;;;;;;;;;;;;;;10.52;46.71;95420.94;5022341;28;20143;-73
2023/07/22 05:31:34;;;;;;;;;;;;;;;10.62;47.24;95422.31;5022916;28;20496;-74
2023/07/22 05:33:59;;;;;;;;;;;;;;;10.83;46.76;95427.91;5019055;28;20313;-74
2023/07/22 05:36:24;;;;;;;;;;;;;;;11.04;46.65;95423.66;5022447;28;19929;-73
2023/07/22 05:38:49;;;;;;;;;;;;;;;11.25;46.32;95422.94;5017185;28;20552;-74
2023/07/22 05:41:15;;;;;;;;;;;;;;;11.41;46.22;95423.72;5022011;28;20361;-74
2023/07/22 05:43:40;;;;;;;;;;;;;;;11.57;45.44;95418.19;5022207;28;19917;-74
2023/07/22 05:46:05;;;;;;;;;;;;;;;11.79;45.43;95428.03;5037112;28;19928;-75
2023/07/22 05:48:30;;;;;;;;;;;;;;;11.96;44.85;95425.91;5017306;28;19927;-73
2023/07/22 05:50:56;;;;;;;;;;;;;;;12.21;44.28;95430.88;5020303;28;20075;-74
2023/07/22 05:53:21;;;;;;;;;;;;;;;12.41;43.83;95428.38;5021991;28;19987;-74
2023/07/22 05:55:46;;;;;;;;;;;;;;;12.60;43.18;95420.69;5022620;28;20046;-73
2023/07/22 05:58:18;;;;;;;;;;;;;;;12.92;42.51;95434.44;5022051;28;19928;-74
2023/07/22 06:00:43;;;;;;;;;;;;;;;13.02;41.91;95426.09;5020646;28;19913;-73
2023/07/22 06:03:08;;;;;;;;;;;;;;;13.40;41.31;95435.50;5019927;28;19925;-74
2023/07/22 06:05:34;;;;;;;;;;;;;;;13.58;40.01;95432.25;5014719;28;19921;-74
2023/07/22 06:07:59;;;;;;;;;;;;;;;13.79;40.16;95435.78;5020880;28;19928;-74
2023/07/22 06:10:24;;;;;;;;;;;;;;;13.78;38.79;95436.81;5020940;28;19917;-74
2023/07/22 06:12:50;;;;;;;;;;;;;;;13.98;39.06;95439.56;5020116;28;19957;-74
2023/07/22 06:15:15;;;;;;;;;;;;;;;13.95;38.92;95443.47;5036922;28;20020;-77
2023/07/22 06:17:40;;;;;;;;;;;;;;;13.95;39.33;95443.47;5020157;28;20101;-73
2023/07/22 06:20:06;;;;;;;;;;;;;;;13.39;39.79;95445.34;5021541;28;19925;-74
2023/07/22 06:22:31;;;;;;;;;;;;;;;13.36;40.25;95440.41;5019126;28;19928;-74
2023/07/22 06:24:56;;;;;;;;;;;;;;;13.29;40.02;95444.91;5021480;28;20392;-73
2023/07/22 06:27:22;;;;;;;;;;;;;;;12.78;41.38;95446.88;5021521;28;19920;-74
2023/07/22 06:29:47;;;;;;;;;;;;;;;13.83;39.91;95445.91;5017771;28;20005;-74
2023/07/22 06:32:12;;;;;;;;;;;;;;;14.40;38.71;95435.88;5020954;28;19927;-74
2023/07/22 06:34:37;;;;;;;;;;;;;;;14.74;37.91;95446.56;5018940;28;19925;-73
2023/07/22 06:37:03;;;;;;;;;;;;;;;14.05;38.16;95444.94;5020908;28;19921;-73
2023/07/22 06:39:28;;;;;;;;;;;;;;;14.52;37.79;95447.59;5018704;28;19921;-74
2023/07/22 06:41:53;;;;;;;;;;;;;;;14.59;37.60;95442.25;5020895;28;20449;-73
2023/07/22 06:44:19;;;;;;;;;;;;;;;14.85;37.20;95448.63;5021398;28;19921;-73
2023/07/22 06:46:44;;;;;;;;;;;;;;;15.49;36.18;95446.13;5020660;28;19917;-73
2023/07/22 06:49:09;;;;;;;;;;;;;;;15.49;36.15;95442.63;5021499;28;19917;-74
2023/07/22 06:51:35;;;;;;;;;;;;;;;15.74;35.40;95441.94;5020701;28;19990;-74
2023/07/22 06:54:01;;;;;;;;;;;;;;;15.43;36.17;95446.19;5019903;28;19932;-74
2023/07/22 06:56:26;;;;;;;;;;;;;;;15.58;35.65;95449.44;5002543;28;19979;-73
2023/07/22 06:58:51;;;;;;;;;;;;;;;15.71;34.60;95448.53;5017478;28;19964;-75
2023/07/22 07:01:17;;;;;;;;;;;;;;;16.13;33.49;95442.69;5019471;28;19925;-75
2023/07/22 07:03:42;;;;;;;;;;;;;;;16.01;34.39;95441.72;5018884;28;20389;-73
2023/07/22 07:06:07;;;;;;;;;;;;;;;15.82;34.92;95443.50;5015196;28;20624;-73
2023/07/22 07:08:32;;;;;;;;;;;;;;;15.02;35.52;95448.19;5018603;28;20036;-74
2023/07/22 07:10:59;;;;;;;;;;;;;;;15.83;34.85;95445.16;5021190;28;19917;-73
2023/07/22 07:13:24;;;;;;;;;;;;;;;16.26;34.30;95451.69;5018530;28;19929;-74
2023/07/22 07:15:49;;;;;;;;;;;;;;;15.31;33.66;95454.06;5021440;28;19917;-72
2023/07/22 07:18:14;;;;;;;;;;;;;;;15.69;33.40;95458.66;5019891;28;20495;-73
2023/07/22 07:20:40;;;;;;;;;;;;;;;15.60;32.72;95457.25;5019683;28;20029;-74
2023/07/22 07:23:07;;;;;;;;;;;;;;;16.01;33.45;95449.78;5018325;28;20447;-73
2023/07/22 07:25:32;;;;;;;;;;;;;;;15.61;33.14;95453.56;5019204;28;19929;-74
2023/07/22 07:27:57;;;;;;;;;;;;;;;15.54;34.08;95460.78;5019931;28;19925;-74
2023/07/22 07:30:23;;;;;;;;;;;;;;;15.98;32.90;95452.94;5015092;28;19929;-74
2023/07/22 07:32:48;;;;;;;;;;;;;;;15.26;34.39;95460.03;5020786;28;19921;-73
2023/07/22 07:35:13;;;;;;;;;;;;;;;15.13;32.66;95454.75;5021141;28;19917;-74
2023/07/22 07:37:38;;;;;;;;;;;;;;;13.58;36.14;95461.69;5020868;28;20644;-74
2023/07/22 07:40:04;;;;;;;;;;;;;;;15.27;32.54;95453.66;5020606;28;19921;-74
2023/07/22 07:42:29;;;;;;;;;;;;;;;14.53;34.06;95459.16;5019844;28;19951;-74
2023/07/22 07:44:54;;;;;;;;;;;;;;;14.12;35.64;95463.66;5018699;28;19964;-73
2023/07/22 07:47:20;;;;;;;;;;;;;;;15.07;33.80;95456.41;5020433;28;19948;-74
2023/07/22 07:49:45;;;;;;;;;;;;;;;15.03;32.79;95465.91;5017400;28;19925;-73
2023/07/22 07:52:10;;;;;;;;;;;;;;;15.30;33.17;95457.78;5018685;28;19929;-74
2023/07/22 07:54:36;;;;;;;;;;;;;;;14.34;33.36;95466.97;5019051;28;19971;-74
2023/07/22 07:57:01;;;;;;;;;;;;;;;15.03;33.34;95463.22;5020754;28;20541;-72
2023/07/22 07:59:26;;;;;;;;;;;;;;;15.28;33.31;95460.66;5015351;28;19929;-67
2023/07/22 08:01:51;;;;;;;;;;;;;;;15.00;33.57;95472.50;5015422;28;20042;-72
2023/07/22 08:04:17;;;;;;;;;;;;;;;14.75;33.95;95472.34;5019797;28;19936;-75
2023/07/22 08:06:42;;;;;;;;;;;;;;;15.12;34.25;95458.47;5014601;28;20501;-76
2023/07/22 08:09:10;;;;;;;;;;;;;;;15.25;33.44;95466.44;5019204;28;19921;-76
2023/07/22 08:11:35;;;;;;;;;;;;;;;15.20;33.59;95455.53;5019262;28;19925;-76
2023/07/22 08:14:01;;;;;;;;;;;;;;;14.09;35.12;95472.94;5020358;28;20036;-75
2023/07/22 08:16:27;;;;;;;;;;;;;;;14.85;34.51;95465.53;5019431;28;19929;-76
2023/07/22 08:18:53;;;;;;;;;;;;;;;14.30;33.91;95463.91;5020462;28;20484;-75
2023/07/22 08:21:19;;;;;;;;;;;;;;;14.01;34.32;95471.25;5018525;28;19921;-76
2023/07/22 08:23:46;;;;;;;;;;;;;;;14.60;33.58;95459.97;5021004;28;20444;-75
2023/07/22 08:26:12;;;;;;;;;;;;;;;14.49;34.00;95469.47;5021001;28;20012;-76
2023/07/22 08:28:37;;;;;;;;;;;;;;;14.33;35.29;95481.41;5021364;28;20147;-75
2023/07/22 08:31:02;;;;;;;;;;;;;;;14.17;35.15;95469.22;5019489;28;19926;-73
2023/07/22 08:33:27;;;;;;;;;;;;;;;15.03;34.56;95465.91;5021872;28;19928;-76
2023/07/22 08:35:53;;;;;;;;;;;;;;;15.84;32.69;95454.88;5023195;28;19913;-76
2023/07/22 08:38:18;;;;;;;;;;;;;;;15.02;33.23;95464.28;5023103;28;19917;-76
2023/07/22 08:40:43;;;;;;;;;;;;;;;15.21;34.39;95481.31;5024409;28;19917;-77
2023/07/22 08:43:10;;;;;;;;;;;;;;;15.93;32.75;95461.63;5023098;28;19921;-76
2023/07/22 08:45:36;;;;;;;;;;;;;;;14.82;34.32;95473.16;5006216;28;19921;-76
2023/07/22 08:48:09;;;;;;;;;;;;;;;15.19;33.76;95468.13;5024431;28;19924;-76
2023/07/22 08:50:44;;;;;;;;;;;;;;;15.87;33.43;95468.69;5022809;28;19979;-76
2023/07/22 08:53:10;;;;;;;;;;;;;;;15.87;33.76;95467.84;5018752;28;19925;-75
2023/07/22 08:55:35;;;;;;;;;;;;;;;14.64;34.78;95463.88;5022909;28;19917;-75
2023/07/22 08:58:01;;;;;;;;;;;;;;;15.69;33.85;95466.72;5022049;28;19917;-75
2023/07/22 09:00:26;;;;;;;;;;;;;;;15.93;33.56;95469.69;5022558;28;19985;-76
2023/07/22 09:02:51;;;;;;;;;;;;;;;15.83;33.87;95463.94;5005276;28;20016;-76
2023/07/22 09:05:17;;;;;;;;;;;;;;;15.75;34.18;95460.47;5015792;28;19979;-76
2023/07/22 09:07:42;;;;;;;;;;;;;;;16.20;34.32;95465.97;5005801;28;19917;-75
2023/07/22 09:10:07;;;;;;;;;;;;;;;16.74;33.16;95458.34;5005118;28;19971;-76
2023/07/22 09:12:39;;;;;;;;;;;;;;;16.13;33.05;95455.28;5023714;28;19917;-76
2023/07/22 09:15:05;;;;;;;;;;;;;;;16.59;33.52;95457.88;5022224;28;19922;-75
2023/07/22 09:17:30;;;;;;;;;;;;;;;15.96;33.83;95458.50;5022164;28;19968;-75
2023/07/22 09:19:55;;;;;;;;;;;;;;;16.32;33.01;95448.13;5022288;28;19963;-77
2023/07/22 09:22:24;;;;;;;;;;;;;;;16.42;33.21;95452.22;5023107;28;19960;-75
2023/07/22 09:24:49;;;;;;;;;;;;;;;17.59;31.88;95448.94;5021700;28;19963;-77
2023/07/22 09:27:15;;;;;;;;;;;;;;;17.75;30.04;95450.19;5023423;28;19917;-76
2023/07/22 09:29:40;;;;;;;;;;;;;;;18.72;28.84;95443.97;5021616;28;20738;-76
2023/07/22 09:32:05;;;;;;;;;;;;;;;19.26;27.45;95454.59;5022177;28;19940;-77
2023/07/22 09:34:31;;;;;;;;;;;;;;;18.09;28.22;95453.25;5021506;28;20317;-76
2023/07/22 09:36:57;;;;;;;;;;;;;;;17.56;28.88;95460.16;5023135;28;20317;-75
2023/07/22 09:39:22;;;;;;;;;;;;;;;17.41;27.86;95466.78;5005467;28;20004;-76
2023/07/22 09:41:47;;;;;;;;;;;;;;;16.18;29.91;95463.50;5023077;28;19956;-78
2023/07/22 09:44:13;;;;;;;;;;;;;;;17.21;27.80;95446.31;5021717;28;19944;-76
2023/07/22 09:46:38;;;;;;;;;;;;;;;17.71;27.03;95451.69;5004921;28;20431;-76
2023/07/22 09:49:04;;;;;;;;;;;;;;;17.99;25.33;95439.53;5004924;28;20302;-76
2023/07/22 09:51:33;;;;;;;;;;;;;;;18.22;25.44;95438.75;5022953;28;19928;-76
2023/07/22 09:53:59;;;;;;;;;;;;;;;17.68;26.59;95444.91;5018156;28;20168;-77
2023/07/22 09:56:24;;;;;;;;;;;;;;;18.08;25.63;95445.41;5022895;28;19921;-76
2023/07/22 09:58:50;;;;;;;;;;;;;;;18.08;25.78;95440.03;5004477;28;19978;-77
2023/07/22 10:01:15;;;;;;;;;;;;;;;17.94;27.01;95442.91;5004574;28;19928;-75
2023/07/22 10:03:40;;;;;;;;;;;;;;;17.78;26.75;95453.22;5021374;28;20286;-76
2023/07/22 10:06:05;;;;;;;;;;;;;;;18.12;26.45;95441.19;5014588;28;19992;-77
2023/07/22 10:08:31;;;;;;;;;;;;;;;17.30;27.39;95440.63;5021630;28;19925;-77
2023/07/22 10:10:56;;;;;;;;;;;;;;;18.27;25.68;95432.66;5004532;28;19921;-76
2023/07/22 10:13:22;;;;;;;;;;;;;;;17.65;25.88;95438.06;5022273;28;20577;-77
2023/07/22 10:15:47;;;;;;;;;;;;;;;17.17;27.27;95433.53;5022693;28;20285;-76
2023/07/22 10:18:12;;;;;;;;;;;;;;;18.22;24.91;95440.63;5022490;28;20018;-76
2023/07/22 10:20:38;;;;;;;;;;;;;;;16.96;26.47;95440.97;5021024;28;20393;-78
2023/07/22 10:23:03;;;;;;;;;;;;;;;17.77;25.78;95435.44;5020744;28;20012;-76
2023/07/22 10:25:29;;;;;;;;;;;;;;;17.31;27.09;95432.31;5020864;28;19964;-76
2023/07/22 10:27:54;;;;;;;;;;;;;;;17.42;27.99;95438.81;5022750;28;19917;-76
2023/07/22 10:30:19;;;;;;;;;;;;;;;17.32;28.17;95433.13;5022337;28;20003;-77
2023/07/22 10:32:45;;;;;;;;;;;;;;;18.01;25.70;95421.25;5004255;28;19920;-77
2023/07/22 10:35:11;;;;;;;;;;;;;;;18.51;25.29;95432.69;5022049;28;19921;-76
2023/07/22 10:37:37;;;;;;;;;;;;;;;15.54;28.76;95439.31;5022125;28;19917;-75
2023/07/22 10:40:32;;;;;;;;;;;;;;;17.25;26.65;95436.75;5021264;28;19920;-76
2023/07/22 10:43:03;;;;;;;;;;;;;;;18.46;25.27;95419.09;5017075;28;19917;-78
2023/07/22 10:45:29;;;;;;;;;;;;;;;18.01;27.49;95430.16;5020149;28;19917;-78
2023/07/22 10:48:21;;;;;;;;;;;;;;;17.17;29.36;95442.44;5020979;28;19913;-77
2023/07/22 10:50:48;;;;;;;;;;;;;;;17.63;28.59;95418.66;5020531;28;20061;-77
2023/07/22 10:53:19;;;;;;;;;;;;;;;17.96;27.53;95434.59;5016091;28;20007;-77
2023/07/22 10:56:03;;;;;;;;;;;;;;;18.00;27.91;95425.00;5020343;28;20302;-77
2023/07/22 10:58:29;;;;;;;;;;;;;;;18.11;26.26;95418.81;5015202;28;20500;-77
2023/07/22 11:00:55;;;;;;;;;;;;;;;19.01;25.21;95426.03;5003566;28;20415;-78
2023/07/22 11:03:21;;;;;;;;;;;;;;;18.37;25.68;95450.97;5020143;28;19928;-76
2023/07/22 11:05:52;;;;;;;;;;;;;;;17.62;27.14;95424.28;5013616;28;20278;-77
2023/07/22 11:08:35;;;;;;;;;;;;;;;16.79;27.90;95429.97;5015173;28;19932;-78
2023/07/22 11:11:00;;;;;;;;;;;;;;;17.07;28.31;95423.25;5036749;28;19925;-76
2023/07/22 11:13:29;;;;;;;;;;;;;;;16.27;28.81;95423.78;5020974;28;19917;-77
2023/07/22 11:15:57;;;;;;;;;;;;;;;16.58;30.10;95414.03;5021396;28;19917;-75
2023/07/22 11:18:22;;;;;;;;;;;;;;;16.61;29.92;95408.22;5021018;28;20421;-77
2023/07/22 11:20:52;;;;;;;;;;;;;;;17.20;29.24;95409.69;5020970;28;19916;-77
2023/07/22 11:23:17;;;;;;;;;;;;;;;17.00;29.96;95401.84;5020078;28;20372;-77
2023/07/22 11:25:42;;;;;;;;;;;;;;;17.46;29.31;95406.88;5019530;28;19917;-76
2023/07/22 11:28:08;;;;;;;;;;;;;;;17.29;28.62;95418.25;5019985;28;20580;-77
2023/07/22 11:30:33;;;;;;;;;;;;;;;18.46;26.92;95387.56;5019501;28;19921;-77
2023/07/22 11:32:58;;;;;;;;;;;;;;;19.19;26.82;95391.84;5020881;28;19928;-78
2023/07/22 11:35:24;;;;;;;;;;;;;;;17.65;27.52;95388.81;5021795;28;19921;-77
2023/07/22 11:37:49;;;;;;;;;;;;;;;19.02;25.75;95387.22;5019841;28;20016;-78
2023/07/22 11:40:14;;;;;;;;;;;;;;;18.71;25.96;95373.06;5020169;28;20294;-77
2023/07/22 11:42:40;;;;;;;;;;;;;;;19.18;25.42;95387.53;5021047;28;20423;-78
2023/07/22 11:45:05;;;;;;;;;;;;;;;19.56;24.27;95386.13;5019428;28;20542;-77
2023/07/22 11:47:33;;;;;;;;;;;;;;;18.12;26.58;95381.94;5019805;28;19924;-78
2023/07/22 11:49:59;;;;;;;;;;;;;;;19.32;24.80;95374.59;5003622;28;19917;-77
2023/07/22 11:52:25;;;;;;;;;;;;;;;19.89;23.65;95378.34;5001342;28;19914;-78
2023/07/22 11:54:50;;;;;;;;;;;;;;;20.47;23.11;95361.16;5033629;28;19932;-77
2023/07/22 11:57:22;;;;;;;;;;;;;;;19.58;24.75;95372.41;5019103;28;19952;-77
2023/07/22 11:59:48;;;;;;;;;;;;;;;18.86;25.08;95385.25;5017486;28;19917;-78
2023/07/22 12:02:14;;;;;;;;;;;;;;;18.42;25.37;95378.31;5019247;28;19979;-77
2023/07/22 12:04:39;;;;;;;;;;;;;;;18.75;25.65;95363.44;5016158;28;19941;-78
2023/07/22 12:07:04;;;;;;;;;;;;;;;18.80;24.69;95382.44;4999612;28;19967;-77
2023/07/22 12:09:30;;;;;;;;;;;;;;;17.48;26.20;95367.94;5022522;28;19924;-76
2023/07/22 12:11:56;;;;;;;;;;;;;;;20.01;23.80;95363.94;5023543;28;20007;-77
2023/07/22 12:14:21;;;;;;;;;;;;;;;19.69;24.04;95368.00;5024398;28;19975;-78
2023/07/22 12:16:47;;;;;;;;;;;;;;;20.66;23.03;95363.63;5023078;28;19924;-77
2023/07/22 12:19:12;;;;;;;;;;;;;;;18.25;25.52;95370.13;5023321;28;19924;-77
2023/07/22 12:21:37;;;;;;;;;;;;;;;19.00;25.09;95388.50;5024044;28;19952;-77
2023/07/22 12:24:04;;;;;;;;;;;;;;;19.13;24.75;95360.41;5007096;28;20513;-77
2023/07/22 12:26:29;;;;;;;;;;;;;;;20.32;23.29;95362.56;5022777;28;20302;-77
2023/07/22 12:28:54;;;;;;;;;;;;;;;20.17;23.00;95365.84;5006686;28;19914;-77
2023/07/22 12:31:19;;;;;;;;;;;;;;;19.56;24.17;95361.84;5022919;28;19917;-78
2023/07/22 12:33:45;;;;;;;;;;;;;;;19.04;24.53;95368.09;5024403;28;20040;-77
2023/07/22 12:36:10;;;;;;;;;;;;;;;20.06;23.86;95359.44;5006629;28;19960;-77
2023/07/22 12:38:36;;;;;;;;;;;;;;;20.71;22.70;95339.34;5022720;28;19924;-77
2023/07/22 12:41:01;;;;;;;;;;;;;;;19.06;23.59;95364.09;5023897;28;20273;-77
2023/07/22 12:43:26;;;;;;;;;;;;;;;20.10;23.13;95355.19;5024412;28;19924;-78